sensor_id;sensor_type;location;lat;lon;timestamp;pressure;altitude;pressure_sealevel;temperature;humidity
19795;BME280;10057;59.402;17.866;2023-05-23T00:01:03;101474.53;;;14.15;47.64
19795;BME280;10057;59.402;17.866;2023-05-23T00:03:33;101475.06;;;14.01;47.58
19795;BME280;10057;59.402;17.866;2023-05-23T00:06:00;101465.66;;;13.92;48.24
19795;BME280;10057;59.402;17.866;2023-05-23T00:08:27;101469.19;;;13.93;48.14
19795;BME280;10057;59.402;17.866;2023-05-23T00:10:54;101473.34;;;14.00;48.43
19795;BME280;10057;59.402;17.866;2023-05-23T00:13:21;101469.84;;;13.98;48.34
19795;BME280;10057;59.402;17.866;2023-05-23T00:15:48;101463.94;;;13.91;48.36
19795;BME280;10057;59.402;17.866;2023-05-23T00:18:15;101457.69;;;13.91;48.48
19795;BME280;10057;59.402;17.866;2023-05-23T00:20:42;101453.31;;;13.90;48.54
19795;BME280;10057;59.402;17.866;2023-05-23T00:23:10;101446.34;;;13.86;48.83
19795;BME280;10057;59.402;17.866;2023-05-23T00:25:44;101452.75;;;13.82;48.66
19795;BME280;10057;59.402;17.866;2023-05-23T00:28:19;101448.41;;;13.79;48.88
19795;BME280;10057;59.402;17.866;2023-05-23T00:30:46;101451.72;;;13.84;48.90
19795;BME280;10057;59.402;17.866;2023-05-23T00:33:15;101451.47;;;13.92;48.79
19795;BME280;10057;59.402;17.866;2023-05-23T00:35:43;101455.84;;;13.93;48.84
19795;BME280;10057;59.402;17.866;2023-05-23T00:38:09;101455.16;;;13.88;48.97
19795;BME280;10057;59.402;17.866;2023-05-23T00:40:37;101450.59;;;13.91;49.06
19795;BME280;10057;59.402;17.866;2023-05-23T00:43:04;101445.09;;;13.94;49.04
19795;BME280;10057;59.402;17.866;2023-05-23T00:45:31;101443.94;;;14.02;49.00
19795;BME280;10057;59.402;17.866;2023-05-23T00:47:58;101439.22;;;14.08;49.20
19795;BME280;10057;59.402;17.866;2023-05-23T00:50:26;101435.50;;;14.12;49.21
19795;BME280;10057;59.402;17.866;2023-05-23T00:52:56;101431.91;;;14.13;48.79
19795;BME280;10057;59.402;17.866;2023-05-23T00:55:25;101431.91;;;14.13;49.09
19795;BME280;10057;59.402;17.866;2023-05-23T00:57:55;101432.84;;;14.12;48.89
19795;BME280;10057;59.402;17.866;2023-05-23T01:00:24;101431.03;;;14.13;49.01
19795;BME280;10057;59.402;17.866;2023-05-23T01:02:51;101437.97;;;14.17;49.27
19795;BME280;10057;59.402;17.866;2023-05-23T01:05:19;101428.16;;;14.17;49.32
19795;BME280;10057;59.402;17.866;2023-05-23T01:07:49;101430.84;;;14.17;49.14
19795;BME280;10057;59.402;17.866;2023-05-23T01:10:19;101431.03;;;14.13;49.22
19795;BME280;10057;59.402;17.866;2023-05-23T01:15:50;101435.50;;;13.90;49.83
19795;BME280;10057;59.402;17.866;2023-05-23T01:18:23;101438.13;;;13.92;49.67
19795;BME280;10057;59.402;17.866;2023-05-23T01:20:54;101436.25;;;13.94;49.92
19795;BME280;10057;59.402;17.866;2023-05-23T01:23:42;101441.34;;;14.00;49.70
19795;BME280;10057;59.402;17.866;2023-05-23T01:26:50;101440.34;;;14.03;49.48
19795;BME280;10057;59.402;17.866;2023-05-23T01:29:25;101439.59;;;13.99;49.77
19795;BME280;10057;59.402;17.866;2023-05-23T01:31:56;101436.19;;;13.95;49.67
19795;BME280;10057;59.402;17.866;2023-05-23T01:34:23;101435.44;;;13.92;50.21
19795;BME280;10057;59.402;17.866;2023-05-23T01:36:53;101437.38;;;13.88;49.84
19795;BME280;10057;59.402;17.866;2023-05-23T01:39:23;101435.69;;;13.86;50.12
19795;BME280;10057;59.402;17.866;2023-05-23T01:41:50;101429.66;;;13.81;50.32
19795;BME280;10057;59.402;17.866;2023-05-23T01:44:19;101422.78;;;13.75;50.51
19795;BME280;10057;59.402;17.866;2023-05-23T01:46:47;101432.88;;;13.67;50.33
19795;BME280;10057;59.402;17.866;2023-05-23T01:49:14;101427.84;;;13.59;50.95
19795;BME280;10057;59.402;17.866;2023-05-23T01:51:42;101441.28;;;13.56;50.86
19795;BME280;10057;59.402;17.866;2023-05-23T01:54:09;101436.06;;;13.53;51.13
19795;BME280;10057;59.402;17.866;2023-05-23T01:56:36;101443.38;;;13.48;51.25
19795;BME280;10057;59.402;17.866;2023-05-23T01:59:03;101438.84;;;13.50;51.50
19795;BME280;10057;59.402;17.866;2023-05-23T02:01:30;101428.88;;;13.55;51.31
19795;BME280;10057;59.402;17.866;2023-05-23T02:03:57;101426.91;;;13.60;51.07
19795;BME280;10057;59.402;17.866;2023-05-23T02:06:23;101423.34;;;13.61;51.12
19795;BME280;10057;59.402;17.866;2023-05-23T02:08:50;101419.59;;;13.65;51.36
19795;BME280;10057;59.402;17.866;2023-05-23T02:11:17;101410.66;;;13.66;50.88
19795;BME280;10057;59.402;17.866;2023-05-23T02:13:44;101417.72;;;13.67;51.21
19795;BME280;10057;59.402;17.866;2023-05-23T02:16:11;101412.41;;;13.67;50.94
19795;BME280;10057;59.402;17.866;2023-05-23T02:18:39;101404.47;;;13.66;50.90
19795;BME280;10057;59.402;17.866;2023-05-23T02:21:06;101411.50;;;13.68;50.96
19795;BME280;10057;59.402;17.866;2023-05-23T02:23:32;101406.94;;;13.70;51.03
19795;BME280;10057;59.402;17.866;2023-05-23T02:25:59;101402.63;;;13.68;51.25
19795;BME280;10057;59.402;17.866;2023-05-23T02:28:26;101409.69;;;13.69;51.01
19795;BME280;10057;59.402;17.866;2023-05-23T02:30:53;101398.16;;;13.68;51.28
19795;BME280;10057;59.402;17.866;2023-05-23T02:33:19;101395.53;;;13.67;51.17
19795;BME280;10057;59.402;17.866;2023-05-23T02:35:47;101393.81;;;13.66;51.52
19795;BME280;10057;59.402;17.866;2023-05-23T02:38:16;101392.09;;;13.65;51.38
19795;BME280;10057;59.402;17.866;2023-05-23T02:40:43;101387.63;;;13.65;51.15
19795;BME280;10057;59.402;17.866;2023-05-23T02:43:10;101391.22;;;13.64;51.16
19795;BME280;10057;59.402;17.866;2023-05-23T02:45:36;101386.00;;;13.61;51.26
19795;BME280;10057;59.402;17.866;2023-05-23T02:48:03;101380.72;;;13.60;51.28
19795;BME280;10057;59.402;17.866;2023-05-23T02:50:30;101378.88;;;13.62;51.13
19795;BME280;10057;59.402;17.866;2023-05-23T02:52:57;101373.59;;;13.60;51.40
19795;BME280;10057;59.402;17.866;2023-05-23T02:55:23;101368.25;;;13.60;51.45
19795;BME280;10057;59.402;17.866;2023-05-23T02:57:50;101367.47;;;13.58;51.55
19795;BME280;10057;59.402;17.866;2023-05-23T03:00:17;101362.00;;;13.61;51.22
19795;BME280;10057;59.402;17.866;2023-05-23T03:02:44;101366.41;;;13.62;50.90
19795;BME280;10057;59.402;17.866;2023-05-23T03:05:11;101362.00;;;13.61;51.16
19795;BME280;10057;59.402;17.866;2023-05-23T03:07:38;101358.41;;;13.62;51.07
19795;BME280;10057;59.402;17.866;2023-05-23T03:10:05;101362.00;;;13.61;50.90
19795;BME280;10057;59.402;17.866;2023-05-23T03:12:32;101352.38;;;13.57;51.02
19795;BME280;10057;59.402;17.866;2023-05-23T03:14:59;101357.84;;;13.54;51.23
19795;BME280;10057;59.402;17.866;2023-05-23T03:17:26;101353.63;;;13.48;51.44
19795;BME280;10057;59.402;17.866;2023-05-23T03:19:52;101345.81;;;13.44;51.43
19795;BME280;10057;59.402;17.866;2023-05-23T03:22:19;101347.44;;;13.48;51.41
19795;BME280;10057;59.402;17.866;2023-05-23T03:24:46;101342.78;;;13.53;51.29
19795;BME280;10057;59.402;17.866;2023-05-23T03:27:13;101340.84;;;13.57;51.25
19795;BME280;10057;59.402;17.866;2023-05-23T03:29:40;101346.88;;;13.62;51.18
19795;BME280;10057;59.402;17.866;2023-05-23T03:32:06;101341.44;;;13.65;51.17
19795;BME280;10057;59.402;17.866;2023-05-23T03:34:33;101342.28;;;13.65;51.09
19795;BME280;10057;59.402;17.866;2023-05-23T03:37:02;101340.50;;;13.66;51.42
19795;BME280;10057;59.402;17.866;2023-05-23T03:39:29;101340.38;;;13.69;51.00
19795;BME280;10057;59.402;17.866;2023-05-23T03:41:56;101344.75;;;13.70;51.17
19795;BME280;10057;59.402;17.866;2023-05-23T03:44:23;101333.34;;;13.66;51.42
19795;BME280;10057;59.402;17.866;2023-05-23T03:46:50;101324.41;;;13.67;51.42
19795;BME280;10057;59.402;17.866;2023-05-23T03:49:16;101330.66;;;13.68;51.01
19795;BME280;10057;59.402;17.866;2023-05-23T03:51:43;101328.84;;;13.68;51.20
19795;BME280;10057;59.402;17.866;2023-05-23T03:54:10;101321.63;;;13.70;51.29
19795;BME280;10057;59.402;17.866;2023-05-23T03:56:36;101322.44;;;13.72;51.52
19795;BME280;10057;59.402;17.866;2023-05-23T03:59:03;101318.84;;;13.73;51.11
19795;BME280;10057;59.402;17.866;2023-05-23T04:01:30;101321.47;;;13.75;51.51
19795;BME280;10057;59.402;17.866;2023-05-23T04:03:56;101318.72;;;13.77;51.55
19795;BME280;10057;59.402;17.866;2023-05-23T04:06:25;101313.25;;;13.80;51.14
19795;BME280;10057;59.402;17.866;2023-05-23T04:08:56;101309.59;;;13.82;51.59
19795;BME280;10057;59.402;17.866;2023-05-23T04:11:22;101305.78;;;13.88;51.10
19795;BME280;10057;59.402;17.866;2023-05-23T04:13:49;101308.41;;;13.89;51.33
19795;BME280;10057;59.402;17.866;2023-05-23T04:16:17;101301.16;;;13.93;51.34
19795;BME280;10057;59.402;17.866;2023-05-23T04:18:44;101299.28;;;13.95;51.15
19795;BME280;10057;59.402;17.866;2023-05-23T04:21:13;101295.56;;;13.99;51.28
19795;BME280;10057;59.402;17.866;2023-05-23T04:23:39;101293.75;;;13.99;51.35
19795;BME280;10057;59.402;17.866;2023-05-23T04:26:06;101298.16;;;14.01;51.33
19795;BME280;10057;59.402;17.866;2023-05-23T04:28:33;101290.09;;;14.02;51.46
19795;BME280;10057;59.402;17.866;2023-05-23T04:31:00;101292.63;;;14.05;51.74
19795;BME280;10057;59.402;17.866;2023-05-23T04:33:28;101286.16;;;14.11;51.73
19795;BME280;10057;59.402;17.866;2023-05-23T04:35:56;101286.03;;;14.14;51.76
19795;BME280;10057;59.402;17.866;2023-05-23T04:38:22;101279.69;;;14.16;51.80
19795;BME280;10057;59.402;17.866;2023-05-23T04:40:50;101275.72;;;14.25;51.83
19795;BME280;10057;59.402;17.866;2023-05-23T04:43:20;101281.53;;;14.35;51.99
19795;BME280;10057;59.402;17.866;2023-05-23T04:45:47;101276.66;;;14.44;51.85
19795;BME280;10057;59.402;17.866;2023-05-23T04:48:16;101277.28;;;14.51;51.77
19795;BME280;10057;59.402;17.866;2023-05-23T04:50:47;101268.06;;;14.58;51.92
19795;BME280;10057;59.402;17.866;2023-05-23T04:53:14;101262.31;;;14.67;52.08
19795;BME280;10057;59.402;17.866;2023-05-23T04:55:41;101260.13;;;14.76;51.58
19795;BME280;10057;59.402;17.866;2023-05-23T04:58:08;101259.94;;;14.80;51.46
19795;BME280;10057;59.402;17.866;2023-05-23T05:00:35;101256.09;;;14.86;51.56
19795;BME280;10057;59.402;17.866;2023-05-23T05:03:02;101256.69;;;14.92;51.47
19795;BME280;10057;59.402;17.866;2023-05-23T05:05:29;101252.00;;;14.98;51.37
19795;BME280;10057;59.402;17.866;2023-05-23T05:07:56;101248.97;;;15.05;51.34
19795;BME280;10057;59.402;17.866;2023-05-23T05:10:23;101250.41;;;15.12;51.29
19795;BME280;10057;59.402;17.866;2023-05-23T05:12:49;101250.72;;;15.24;51.30
19795;BME280;10057;59.402;17.866;2023-05-23T05:15:16;101245.72;;;15.35;51.13
19795;BME280;10057;59.402;17.866;2023-05-23T05:17:44;101245.28;;;15.44;51.20
19795;BME280;10057;59.402;17.866;2023-05-23T05:20:14;101239.47;;;15.53;51.12
19795;BME280;10057;59.402;17.866;2023-05-23T05:22:41;101239.94;;;15.61;50.78
19795;BME280;10057;59.402;17.866;2023-05-23T05:25:09;101231.66;;;15.68;50.83
19795;BME280;10057;59.402;17.866;2023-05-23T05:27:38;101228.69;;;15.74;50.50
19795;BME280;10057;59.402;17.866;2023-05-23T05:30:07;101231.09;;;15.78;50.30
19795;BME280;10057;59.402;17.866;2023-05-23T05:32:34;101228.97;;;15.85;50.36
19795;BME280;10057;59.402;17.866;2023-05-23T05:35:02;101232.22;;;15.92;50.26
19795;BME280;10057;59.402;17.866;2023-05-23T05:37:29;101229.06;;;16.01;50.08
19795;BME280;10057;59.402;17.866;2023-05-23T05:39:56;101228.50;;;16.11;49.85
19795;BME280;10057;59.402;17.866;2023-05-23T05:42:22;101223.53;;;16.21;49.72
19795;BME280;10057;59.402;17.866;2023-05-23T05:44:49;101220.44;;;16.29;49.49
19795;BME280;10057;59.402;17.866;2023-05-23T05:47:16;101221.84;;;16.36;49.38
19795;BME280;10057;59.402;17.866;2023-05-23T05:49:43;101227.72;;;16.43;49.29
19795;BME280;10057;59.402;17.866;2023-05-23T05:52:09;101233.78;;;16.46;49.26
19795;BME280;10057;59.402;17.866;2023-05-23T05:54:36;101230.78;;;16.52;48.98
19795;BME280;10057;59.402;17.866;2023-05-23T05:57:03;101227.94;;;16.55;48.90
19795;BME280;10057;59.402;17.866;2023-05-23T05:59:30;101220.59;;;16.59;48.88
19795;BME280;10057;59.402;17.866;2023-05-23T06:01:58;101228.31;;;16.65;48.70
19795;BME280;10057;59.402;17.866;2023-05-23T06:04:25;101223.53;;;16.70;48.76
19795;BME280;10057;59.402;17.866;2023-05-23T06:06:51;101223.31;;;16.75;48.73
19795;BME280;10057;59.402;17.866;2023-05-23T06:09:18;101220.41;;;16.79;48.46
19795;BME280;10057;59.402;17.866;2023-05-23T06:11:45;101219.97;;;16.87;48.50
19795;BME280;10057;59.402;17.866;2023-05-23T06:14:12;101219.53;;;16.95;48.49
19795;BME280;10057;59.402;17.866;2023-05-23T06:16:39;101219.09;;;17.02;48.44
19795;BME280;10057;59.402;17.866;2023-05-23T06:19:07;101215.13;;;17.10;48.28
19795;BME280;10057;59.402;17.866;2023-05-23T06:21:34;101219.19;;;17.17;48.12
19795;BME280;10057;59.402;17.866;2023-05-23T06:24:01;101214.22;;;17.25;48.25
19795;BME280;10057;59.402;17.866;2023-05-23T06:26:28;101221.66;;;17.36;48.01
19795;BME280;10057;59.402;17.866;2023-05-23T06:28:55;101214.72;;;17.47;48.12
19795;BME280;10057;59.402;17.866;2023-05-23T06:31:22;101212.00;;;17.63;48.09
19795;BME280;10057;59.402;17.866;2023-05-23T06:33:48;101210.28;;;17.78;47.56
19795;BME280;10057;59.402;17.866;2023-05-23T06:36:16;101214.50;;;17.96;47.39
19795;BME280;10057;59.402;17.866;2023-05-23T06:38:43;101208.13;;;18.13;47.20
19795;BME280;10057;59.402;17.866;2023-05-23T06:41:10;101206.28;;;18.28;46.93
19795;BME280;10057;59.402;17.866;2023-05-23T06:43:36;101210.91;;;18.40;46.54
19795;BME280;10057;59.402;17.866;2023-05-23T06:46:03;101211.22;;;18.50;46.35
19795;BME280;10057;59.402;17.866;2023-05-23T06:48:30;101211.56;;;18.58;46.15
19795;BME280;10057;59.402;17.866;2023-05-23T06:50:57;101214.53;;;18.68;45.83
19795;BME280;10057;59.402;17.866;2023-05-23T06:53:24;101209.47;;;18.78;45.40
19795;BME280;10057;59.402;17.866;2023-05-23T06:55:51;101208.88;;;18.87;45.64
19795;BME280;10057;59.402;17.866;2023-05-23T06:58:17;101216.34;;;18.96;45.52
19795;BME280;10057;59.402;17.866;2023-05-23T07:00:44;101206.06;;;19.03;45.20
19795;BME280;10057;59.402;17.866;2023-05-23T07:03:11;101206.41;;;19.11;45.04
19795;BME280;10057;59.402;17.866;2023-05-23T07:05:38;101199.88;;;19.15;45.02
19795;BME280;10057;59.402;17.866;2023-05-23T07:08:06;101196.78;;;19.21;44.75
19795;BME280;10057;59.402;17.866;2023-05-23T07:10:33;101197.44;;;19.25;44.53
19795;BME280;10057;59.402;17.866;2023-05-23T07:13:01;101190.91;;;19.29;44.39
19795;BME280;10057;59.402;17.866;2023-05-23T07:15:27;101196.81;;;19.34;44.19
19795;BME280;10057;59.402;17.866;2023-05-23T07:17:54;101184.88;;;19.38;44.04
19795;BME280;10057;59.402;17.866;2023-05-23T07:20:21;101187.09;;;19.46;43.76
19795;BME280;10057;59.402;17.866;2023-05-23T07:22:48;101191.81;;;19.55;43.46
19795;BME280;10057;59.402;17.866;2023-05-23T07:25:17;101192.22;;;19.63;43.16
19795;BME280;10057;59.402;17.866;2023-05-23T07:27:44;101190.84;;;19.70;43.08
19795;BME280;10057;59.402;17.866;2023-05-23T07:30:11;101186.09;;;19.74;43.02
19795;BME280;10057;59.402;17.866;2023-05-23T07:32:37;101186.97;;;19.74;42.54
19795;BME280;10057;59.402;17.866;2023-05-23T07:35:04;101183.28;;;19.75;42.46
19795;BME280;10057;59.402;17.866;2023-05-23T07:37:31;101185.69;;;19.80;42.36
19795;BME280;10057;59.402;17.866;2023-05-23T07:39:59;101182.47;;;19.87;42.18
19795;BME280;10057;59.402;17.866;2023-05-23T07:42:26;101186.44;;;19.95;41.74
19795;BME280;10057;59.402;17.866;2023-05-23T07:44:53;101186.75;;;20.03;41.82
19795;BME280;10057;59.402;17.866;2023-05-23T07:47:20;101177.28;;;20.10;41.54
19795;BME280;10057;59.402;17.866;2023-05-23T07:49:47;101181.16;;;20.19;41.21
19795;BME280;10057;59.402;17.866;2023-05-23T07:52:13;101184.28;;;20.25;41.10
19795;BME280;10057;59.402;17.866;2023-05-23T07:54:40;101181.16;;;20.31;40.63
19795;BME280;10057;59.402;17.866;2023-05-23T07:57:08;101180.06;;;20.34;40.53
19795;BME280;10057;59.402;17.866;2023-05-23T07:59:35;101181.47;;;20.40;40.37
19795;BME280;10057;59.402;17.866;2023-05-23T08:02:02;101183.72;;;20.46;40.29
19795;BME280;10057;59.402;17.866;2023-05-23T08:04:29;101180.72;;;20.50;40.59
19795;BME280;10057;59.402;17.866;2023-05-23T08:06:57;101183.84;;;20.57;40.23
19795;BME280;10057;59.402;17.866;2023-05-23T08:09:31;101177.03;;;20.64;39.99
19795;BME280;10057;59.402;17.866;2023-05-23T08:11:58;101175.75;;;20.70;39.90
19795;BME280;10057;59.402;17.866;2023-05-23T08:14:26;101175.28;;;20.76;39.95
19795;BME280;10057;59.402;17.866;2023-05-23T08:17:07;101177.44;;;20.83;39.73
19795;BME280;10057;59.402;17.866;2023-05-23T08:19:34;101178.69;;;20.91;39.73
19795;BME280;10057;59.402;17.866;2023-05-23T08:22:01;101178.47;;;20.94;39.41
19795;BME280;10057;59.402;17.866;2023-05-23T08:24:30;101177.25;;;20.98;39.53
19795;BME280;10057;59.402;17.866;2023-05-23T08:26:57;101176.81;;;21.04;39.54
19795;BME280;10057;59.402;17.866;2023-05-23T08:29:23;101166.53;;;21.09;39.03
19795;BME280;10057;59.402;17.866;2023-05-23T08:31:50;101168.91;;;21.14;38.92
19795;BME280;10057;59.402;17.866;2023-05-23T08:34:17;101164.13;;;21.17;39.01
19795;BME280;10057;59.402;17.866;2023-05-23T08:36:44;101165.50;;;21.23;38.95
19795;BME280;10057;59.402;17.866;2023-05-23T08:39:10;101166.88;;;21.28;38.74
19795;BME280;10057;59.402;17.866;2023-05-23T08:41:39;101169.34;;;21.32;38.66
19795;BME280;10057;59.402;17.866;2023-05-23T08:44:06;101174.41;;;21.36;38.55
19795;BME280;10057;59.402;17.866;2023-05-23T08:46:39;101167.84;;;21.40;38.56
19795;BME280;10057;59.402;17.866;2023-05-23T08:49:06;101173.72;;;21.45;38.21
19795;BME280;10057;59.402;17.866;2023-05-23T08:51:34;101172.41;;;21.51;38.06
19795;BME280;10057;59.402;17.866;2023-05-23T08:54:04;101174.75;;;21.56;38.02
19795;BME280;10057;59.402;17.866;2023-05-23T08:56:31;101166.28;;;21.60;37.69
19795;BME280;10057;59.402;17.866;2023-05-23T08:58:58;101177.84;;;21.62;37.29
19795;BME280;10057;59.402;17.866;2023-05-23T09:01:25;101175.63;;;21.67;37.23
19795;BME280;10057;59.402;17.866;2023-05-23T09:03:53;101178.97;;;21.71;37.25
19795;BME280;10057;59.402;17.866;2023-05-23T09:06:20;101173.22;;;21.75;36.81
19795;BME280;10057;59.402;17.866;2023-05-23T09:08:47;101171.75;;;21.83;36.69
19795;BME280;10057;59.402;17.866;2023-05-23T09:11:14;101173.84;;;21.90;36.54
19795;BME280;10057;59.402;17.866;2023-05-23T09:13:41;101165.41;;;21.95;36.00
19795;BME280;10057;59.402;17.866;2023-05-23T09:16:09;101162.22;;;22.01;35.98
19795;BME280;10057;59.402;17.866;2023-05-23T09:18:38;101158.41;;;22.04;35.67
19795;BME280;10057;59.402;17.866;2023-05-23T09:21:07;101162.72;;;22.06;35.47
19795;BME280;10057;59.402;17.866;2023-05-23T09:23:35;101167.44;;;22.15;35.31
19795;BME280;10057;59.402;17.866;2023-05-23T09:26:03;101165.22;;;22.20;35.29
19795;BME280;10057;59.402;17.866;2023-05-23T09:28:32;101161.28;;;22.24;35.09
19795;BME280;10057;59.402;17.866;2023-05-23T09:31:00;101162.75;;;22.29;35.00
19795;BME280;10057;59.402;17.866;2023-05-23T09:33:45;101159.47;;;22.36;35.20
19795;BME280;10057;59.402;17.866;2023-05-23T09:36:14;101168.66;;;22.45;35.08
19795;BME280;10057;59.402;17.866;2023-05-23T09:38:43;101168.16;;;22.51;35.07
19795;BME280;10057;59.402;17.866;2023-05-23T09:41:10;101171.72;;;22.52;34.53
19795;BME280;10057;59.402;17.866;2023-05-23T09:43:51;101167.91;;;22.54;34.40
19795;BME280;10057;59.402;17.866;2023-05-23T09:46:19;101164.72;;;22.60;34.33
19795;BME280;10057;59.402;17.866;2023-05-23T09:48:50;101168.66;;;22.67;34.18
19795;BME280;10057;59.402;17.866;2023-05-23T09:51:19;101166.16;;;22.76;34.51
19795;BME280;10057;59.402;17.866;2023-05-23T09:53:49;101170.81;;;22.85;34.12
19795;BME280;10057;59.402;17.866;2023-05-23T09:56:16;101173.16;;;22.89;33.69
19795;BME280;10057;59.402;17.866;2023-05-23T09:58:46;101159.00;;;22.97;33.64
19795;BME280;10057;59.402;17.866;2023-05-23T10:01:14;101175.00;;;23.00;33.23
19795;BME280;10057;59.402;17.866;2023-05-23T10:03:48;101174.13;;;23.00;33.19
19795;BME280;10057;59.402;17.866;2023-05-23T10:06:25;101162.94;;;23.04;33.29
19795;BME280;10057;59.402;17.866;2023-05-23T10:09:04;101168.69;;;23.11;33.12
19795;BME280;10057;59.402;17.866;2023-05-23T10:14:06;101165.31;;;23.30;32.81
19795;BME280;10057;59.402;17.866;2023-05-23T10:16:54;101166.09;;;23.41;32.46
19795;BME280;10057;59.402;17.866;2023-05-23T10:22:00;101163.72;;;23.59;32.53
19795;BME280;10057;59.402;17.866;2023-05-23T10:24:29;101172.66;;;23.71;32.32
19795;BME280;10057;59.402;17.866;2023-05-23T10:26:56;101161.75;;;23.82;31.84
19795;BME280;10057;59.402;17.866;2023-05-23T10:29:24;101159.84;;;23.94;31.79
19795;BME280;10057;59.402;17.866;2023-05-23T10:31:51;101157.03;;;24.05;31.53
19795;BME280;10057;59.402;17.866;2023-05-23T10:34:33;101161.38;;;24.18;31.43
19795;BME280;10057;59.402;17.866;2023-05-23T10:37:04;101154.44;;;24.25;30.25
19795;BME280;10057;59.402;17.866;2023-05-23T10:39:44;101158.00;;;24.25;30.39
19795;BME280;10057;59.402;17.866;2023-05-23T10:42:43;101150.88;;;24.34;30.36
19795;BME280;10057;59.402;17.866;2023-05-23T10:45:28;101150.25;;;24.42;30.63
19795;BME280;10057;59.402;17.866;2023-05-23T10:47:55;101152.13;;;24.51;30.27
19795;BME280;10057;59.402;17.866;2023-05-23T10:50:32;101151.47;;;24.58;29.69
19795;BME280;10057;59.402;17.866;2023-05-23T10:53:00;101158.44;;;24.61;29.23
19795;BME280;10057;59.402;17.866;2023-05-23T10:55:33;101158.16;;;24.64;29.27
19795;BME280;10057;59.402;17.866;2023-05-23T10:58:18;101153.78;;;24.73;29.73
19795;BME280;10057;59.402;17.866;2023-05-23T11:01:00;101157.38;;;24.83;29.68
19795;BME280;10057;59.402;17.866;2023-05-23T11:06:36;101151.53;;;24.97;29.47
19795;BME280;10057;59.402;17.866;2023-05-23T11:09:17;101154.84;;;25.11;29.05
19795;BME280;10057;59.402;17.866;2023-05-23T11:14:14;101157.44;;;25.32;28.82
19795;BME280;10057;59.402;17.866;2023-05-23T11:16:42;101165.88;;;25.38;28.39
19795;BME280;10057;59.402;17.866;2023-05-23T11:19:20;101169.47;;;25.39;27.79
19795;BME280;10057;59.402;17.866;2023-05-23T11:21:51;101157.16;;;25.25;27.33
19795;BME280;10057;59.402;17.866;2023-05-23T11:24:18;101167.16;;;25.15;27.58
19795;BME280;10057;59.402;17.866;2023-05-23T11:26:57;101163.44;;;25.16;27.88
19795;BME280;10057;59.402;17.866;2023-05-23T11:29:27;101163.59;;;25.24;27.62
19795;BME280;10057;59.402;17.866;2023-05-23T11:31:55;101163.72;;;25.32;27.08
19795;BME280;10057;59.402;17.866;2023-05-23T11:34:24;101164.19;;;25.37;27.33
19795;BME280;10057;59.402;17.866;2023-05-23T11:36:53;101163.16;;;25.38;26.89
19795;BME280;10057;59.402;17.866;2023-05-23T11:39:21;101158.31;;;25.32;26.33
19795;BME280;10057;59.402;17.866;2023-05-23T11:41:59;101161.59;;;25.26;26.57
19795;BME280;10057;59.402;17.866;2023-05-23T11:44:26;101166.88;;;25.27;26.79
19795;BME280;10057;59.402;17.866;2023-05-23T11:47:03;101153.88;;;25.41;26.24
19795;BME280;10057;59.402;17.866;2023-05-23T11:49:32;101148.47;;;25.50;26.75
19795;BME280;10057;59.402;17.866;2023-05-23T11:52:00;101141.44;;;25.58;26.16
19795;BME280;10057;59.402;17.866;2023-05-23T11:54:27;101146.16;;;25.65;26.43
19795;BME280;10057;59.402;17.866;2023-05-23T11:56:55;101149.41;;;25.79;26.55
19795;BME280;10057;59.402;17.866;2023-05-23T11:59:23;101134.81;;;25.89;26.15
19795;BME280;10057;59.402;17.866;2023-05-23T12:01:52;101150.56;;;25.95;26.00
19795;BME280;10057;59.402;17.866;2023-05-23T12:04:18;101139.69;;;25.95;25.58
19795;BME280;10057;59.402;17.866;2023-05-23T12:06:47;101138.97;;;25.93;25.86
19795;BME280;10057;59.402;17.866;2023-05-23T12:09:14;101133.94;;;25.98;25.83
19795;BME280;10057;59.402;17.866;2023-05-23T12:11:42;101138.09;;;26.03;25.63
19795;BME280;10057;59.402;17.866;2023-05-23T12:14:13;101138.94;;;26.03;25.46
19795;BME280;10057;59.402;17.866;2023-05-23T12:16:43;101142.53;;;25.94;25.44
19795;BME280;10057;59.402;17.866;2023-05-23T12:19:15;101133.53;;;25.93;25.76
19795;BME280;10057;59.402;17.866;2023-05-23T12:21:47;101136.22;;;26.03;25.99
19795;BME280;10057;59.402;17.866;2023-05-23T12:24:19;101141.34;;;26.16;26.14
19795;BME280;10057;59.402;17.866;2023-05-23T12:26:54;101142.81;;;26.38;26.44
19795;BME280;10057;59.402;17.866;2023-05-23T12:29:33;101135.13;;;26.61;26.67
19795;BME280;10057;59.402;17.866;2023-05-23T12:32:03;101133.06;;;26.73;25.87
19795;BME280;10057;59.402;17.866;2023-05-23T12:34:30;101141.75;;;26.76;26.24
19795;BME280;10057;59.402;17.866;2023-05-23T12:36:59;101130.34;;;26.90;25.97
19795;BME280;10057;59.402;17.866;2023-05-23T12:39:45;101133.09;;;27.08;25.88
19795;BME280;10057;59.402;17.866;2023-05-23T12:42:12;101142.63;;;27.40;26.04
19795;BME280;10057;59.402;17.866;2023-05-23T12:44:40;101132.00;;;27.73;25.29
19795;BME280;10057;59.402;17.866;2023-05-23T12:47:09;101135.38;;;27.93;24.77
19795;BME280;10057;59.402;17.866;2023-05-23T12:49:38;101141.09;;;28.07;24.67
19795;BME280;10057;59.402;17.866;2023-05-23T12:52:05;101140.50;;;28.22;24.59
19795;BME280;10057;59.402;17.866;2023-05-23T12:54:32;101139.00;;;28.27;24.35
19795;BME280;10057;59.402;17.866;2023-05-23T12:56:59;101138.28;;;28.25;24.34
19795;BME280;10057;59.402;17.866;2023-05-23T12:59:26;101144.78;;;28.24;24.32
19795;BME280;10057;59.402;17.866;2023-05-23T13:01:53;101144.38;;;28.11;24.12